createdAt,value
2022-12-23T00:00:14.305Z,96632.38
2022-12-23T00:02:41.611Z,96629.75
2022-12-23T00:05:09.992Z,96631.53
2022-12-23T00:07:37.463Z,96627.84
2022-12-23T00:10:05.167Z,96624.78
2022-12-23T00:12:50.868Z,96630.03
2022-12-23T00:15:18.141Z,96630.59
2022-12-23T00:17:46.117Z,96627.91
2022-12-23T00:20:15.813Z,96628.72
2022-12-23T00:23:01.947Z,96628.16
2022-12-23T00:25:41.613Z,96626.88
2022-12-23T00:28:13.049Z,96627.09
2022-12-23T00:30:53.891Z,96623.06
2022-12-23T00:33:30.374Z,96625.56
2022-12-23T00:35:57.947Z,96622.84
2022-12-23T00:38:45.687Z,96619.13
2022-12-23T00:41:34.456Z,96620.09
2022-12-23T00:44:02.880Z,96619.09
2022-12-23T00:46:30.239Z,96618.34
2022-12-23T00:49:33.139Z,96622.53
2022-12-23T00:52:01.107Z,96619.81
2022-12-23T00:54:28.992Z,96617.66
2022-12-23T00:56:56.283Z,96610.91
2022-12-23T00:59:23.640Z,96601.34
2022-12-23T01:02:09.634Z,96603.66
2022-12-23T01:04:55.773Z,96611.63
2022-12-23T01:07:23.548Z,96610.22
2022-12-23T01:09:51.182Z,96615.75
2022-12-23T01:12:18.907Z,96614.50
2022-12-23T01:14:46.444Z,96602.63
2022-12-23T01:17:13.974Z,96606.56
2022-12-23T01:19:41.254Z,96607.81
2022-12-23T01:22:08.510Z,96605.81
2022-12-23T01:24:35.813Z,96601.84
2022-12-23T01:27:03.066Z,96603.44
2022-12-23T01:29:30.370Z,96603.13
2022-12-23T01:31:57.735Z,96610.75
2022-12-23T01:34:25.995Z,96609.03
2022-12-23T01:36:55.849Z,96609.31
2022-12-23T01:39:23.111Z,96612.97
2022-12-23T01:42:09.131Z,96611.94
2022-12-23T01:45:00.877Z,96613.78
2022-12-23T01:47:52.761Z,96616.75
2022-12-23T01:50:39.706Z,96622.97
2022-12-23T01:53:18.148Z,96632.38
2022-12-23T01:56:04.775Z,96637.38
2022-12-23T01:58:39.161Z,96643.88
2022-12-23T02:01:26.541Z,96643.88
2022-12-23T02:04:01.200Z,96637.19
2022-12-23T02:06:54.174Z,96637.91
2022-12-23T02:09:26.253Z,96622.50
2022-12-23T02:12:18.211Z,96629.84
2022-12-23T02:15:25.149Z,96627.00
2022-12-23T02:18:22.795Z,96620.41
2022-12-23T02:21:20.417Z,96622.50
2022-12-23T02:24:14.655Z,96623.13
2022-12-23T02:27:32.029Z,96620.47
2022-12-23T02:30:26.251Z,96625.22
2022-12-23T02:33:11.860Z,96620.81
2022-12-23T02:35:57.034Z,96615.50
2022-12-23T02:38:54.150Z,96619.69
2022-12-23T02:41:53.286Z,96620.69
2022-12-23T02:44:56.160Z,96624.78
2022-12-23T02:47:33.828Z,96619.19
2022-12-23T02:50:11.138Z,96615.84
2022-12-23T02:52:41.876Z,96612.59
2022-12-23T02:55:13.095Z,96614.94
2022-12-23T02:57:46.706Z,96614.47
2022-12-23T03:00:15.439Z,96604.03
2022-12-23T03:02:43.950Z,96606.59
2022-12-23T03:05:39.297Z,96600.16
2022-12-23T03:08:14.801Z,96606.28
2022-12-23T03:11:09.855Z,96597.28
2022-12-23T03:14:21.351Z,96598.28
2022-12-23T03:17:17.662Z,96593.59
2022-12-23T03:20:12.712Z,96593.59
2022-12-23T03:23:01.374Z,96593.84
2022-12-23T03:25:45.101Z,96595.19
2022-12-23T03:28:52.035Z,96595.50
2022-12-23T03:31:29.789Z,96582.06
2022-12-23T03:34:10.550Z,96578.66
2022-12-23T03:36:48.596Z,96570.06
2022-12-23T03:39:22.666Z,96564.84
2022-12-23T03:42:02.052Z,96559.88
2022-12-23T03:44:39.271Z,96557.81
2022-12-23T03:47:32.280Z,96557.66
2022-12-23T03:50:09.461Z,96560.34
2022-12-23T03:52:57.049Z,96563.69
2022-12-23T03:55:41.297Z,96561.91
2022-12-23T03:58:29.681Z,96563.59
2022-12-23T04:01:33.439Z,96561.06
2022-12-23T04:04:23.471Z,96555.69
2022-12-23T04:07:11.232Z,96553.00
2022-12-23T04:09:38.973Z,96546.34
2022-12-23T04:12:07.981Z,96547.19
2022-12-23T04:14:36.761Z,96545.97
2022-12-23T04:17:04.154Z,96543.88
2022-12-23T04:19:31.547Z,96546.47
2022-12-23T04:21:58.742Z,96548.22
2022-12-23T04:24:25.914Z,96547.19
2022-12-23T04:26:53.402Z,96545.91
2022-12-23T04:29:20.628Z,96545.84
2022-12-23T04:31:47.925Z,96539.81
2022-12-23T04:34:15.340Z,96541.22
2022-12-23T04:36:42.617Z,96544.75
2022-12-23T04:39:10.083Z,96543.03
2022-12-23T04:41:37.408Z,96546.34
2022-12-23T04:44:07.418Z,96537.84
2022-12-23T04:46:37.036Z,96538.44
2022-12-23T04:49:04.279Z,96540.56
2022-12-23T04:51:31.536Z,96536.97
2022-12-23T04:53:58.841Z,96543.38
2022-12-23T04:56:26.339Z,96537.06
2022-12-23T04:58:53.695Z,96540.00
2022-12-23T05:01:21.194Z,96539.47
2022-12-23T05:03:48.465Z,96544.22
2022-12-23T05:06:15.716Z,96540.28
2022-12-23T05:08:42.957Z,96537.66
2022-12-23T05:11:10.189Z,96540.38
2022-12-23T05:13:37.518Z,96534.41
2022-12-23T05:16:05.498Z,96535.44
2022-12-23T05:18:32.719Z,96536.19
2022-12-23T05:21:00.089Z,96534.59
2022-12-23T05:23:27.328Z,96533.09
2022-12-23T05:25:54.906Z,96531.50
2022-12-23T05:28:22.997Z,96525.25
2022-12-23T05:30:57.163Z,96519.84
2022-12-23T05:33:24.422Z,96529.53
2022-12-23T05:35:51.678Z,96532.03
2022-12-23T05:38:19.104Z,96523.06
2022-12-23T05:40:46.307Z,96521.78
2022-12-23T05:43:13.814Z,96526.66
2022-12-23T05:45:41.185Z,96529.25
2022-12-23T05:48:09.017Z,96523.84
2022-12-23T05:50:36.883Z,96528.94
2022-12-23T05:53:05.103Z,96526.81
2022-12-23T05:55:32.568Z,96527.97
2022-12-23T05:57:59.919Z,96521.31
2022-12-23T06:00:27.778Z,96535.59
2022-12-23T06:02:55.363Z,96522.31
2022-12-23T06:05:22.996Z,96532.00
2022-12-23T06:07:50.483Z,96532.81
2022-12-23T06:10:17.855Z,96523.47
2022-12-23T06:12:45.092Z,96527.44
2022-12-23T06:15:12.758Z,96528.75
2022-12-23T06:17:40.039Z,96525.91
2022-12-23T06:20:12.142Z,96527.81
2022-12-23T06:22:43.593Z,96528.44
2022-12-23T06:25:13.670Z,96527.38
2022-12-23T06:27:41.083Z,96531.28
2022-12-23T06:30:09.484Z,96535.31
2022-12-23T06:32:38.792Z,96536.13
2022-12-23T06:35:08.453Z,96526.47
2022-12-23T06:37:36.141Z,96531.13
2022-12-23T06:40:03.856Z,96533.22
2022-12-23T06:42:31.319Z,96535.03
2022-12-23T06:44:58.588Z,96540.03
2022-12-23T06:47:25.905Z,96542.34
2022-12-23T06:49:53.228Z,96541.63
2022-12-23T06:52:20.477Z,96540.59
2022-12-23T06:54:47.678Z,96546.34
2022-12-23T06:57:14.892Z,96542.78
2022-12-23T06:59:42.143Z,96556.09
2022-12-23T07:02:12.178Z,96557.94
2022-12-23T07:04:39.817Z,96556.44
2022-12-23T07:07:07.104Z,96554.56
2022-12-23T07:09:34.274Z,96566.75
2022-12-23T07:12:03.892Z,96568.00
2022-12-23T07:14:31.236Z,96576.59
2022-12-23T07:16:58.598Z,96559.41
2022-12-23T07:19:25.987Z,96572.03
2022-12-23T07:21:53.411Z,96561.56
2022-12-23T07:24:20.725Z,96563.84
2022-12-23T07:26:48.195Z,96575.25
2022-12-23T07:29:15.623Z,96569.03
2022-12-23T07:31:42.843Z,96570.59
2022-12-23T07:34:10.483Z,96579.16
2022-12-23T07:36:37.912Z,96577.88
2022-12-23T07:39:05.352Z,96573.44
2022-12-23T07:41:32.773Z,96577.31
2022-12-23T07:44:07.765Z,96578.38
2022-12-23T07:46:35.324Z,96573.03
2022-12-23T07:49:02.793Z,96563.25
2022-12-23T07:51:30.570Z,96564.34
2022-12-23T07:53:58.322Z,96552.81
2022-12-23T07:56:26.035Z,96551.00
2022-12-23T07:58:54.422Z,96551.84
2022-12-23T08:01:22.245Z,96556.19
2022-12-23T08:03:49.752Z,96556.25
2022-12-23T08:06:17.318Z,96555.16
2022-12-23T08:08:46.425Z,96548.41
2022-12-23T08:11:15.479Z,96551.38
2022-12-23T08:13:45.739Z,96550.88
2022-12-23T08:16:13.285Z,96555.63
2022-12-23T08:18:42.463Z,96553.25
2022-12-23T08:21:17.502Z,96548.25
2022-12-23T08:23:47.122Z,96553.50
2022-12-23T08:26:23.754Z,96546.19
2022-12-23T08:28:54.987Z,96540.47
2022-12-23T08:31:26.202Z,96546.19
2022-12-23T08:33:57.373Z,96546.91
2022-12-23T08:36:29.573Z,96542.78
2022-12-23T08:38:59.496Z,96538.13
2022-12-23T08:41:31.222Z,96533.69
2022-12-23T08:43:59.097Z,96535.03
2022-12-23T08:46:27.216Z,96534.47
2022-12-23T08:48:55.055Z,96538.69
2022-12-23T08:51:25.049Z,96538.44
2022-12-23T08:54:00.973Z,96522.16
2022-12-23T08:56:35.850Z,96511.97
2022-12-23T08:59:04.372Z,96514.13
2022-12-23T09:01:34.409Z,96511.34
2022-12-23T09:04:07.590Z,96509.81
2022-12-23T09:06:40.867Z,96512.69
2022-12-23T09:09:10.388Z,96506.91
2022-12-23T09:11:38.567Z,96507.72
2022-12-23T09:14:08.726Z,96507.44
2022-12-23T09:16:36.581Z,96505.06
2022-12-23T09:19:04.721Z,96495.34
2022-12-23T09:21:32.223Z,96497.44
2022-12-23T09:23:59.599Z,96491.44
2022-12-23T09:26:30.672Z,96495.84
2022-12-23T09:28:58.209Z,96485.09
2022-12-23T09:31:32.337Z,96502.69
2022-12-23T09:34:04.061Z,96496.94
2022-12-23T09:36:31.502Z,96495.88
2022-12-23T09:38:59.191Z,96486.38
2022-12-23T09:42:01.451Z,96488.50
2022-12-23T09:44:43.291Z,96486.88
2022-12-23T09:47:21.179Z,96481.34
2022-12-23T09:49:57.244Z,96480.06
2022-12-23T09:52:46.619Z,96481.38
2022-12-23T09:55:15.441Z,96481.13
2022-12-23T09:58:07.054Z,96475.88
2022-12-23T10:01:02.738Z,96476.19
2022-12-23T10:03:50.262Z,96480.88
2022-12-23T10:06:27.484Z,96477.75
2022-12-23T10:09:02.615Z,96476.44
2022-12-23T10:11:40.064Z,96475.63
2022-12-23T10:14:31.237Z,96474.06
2022-12-23T10:17:13.113Z,96474.31
2022-12-23T10:19:48.827Z,96476.69
2022-12-23T10:22:37.440Z,96474.06
2022-12-23T10:25:24.678Z,96478.56
2022-12-23T10:27:52.147Z,96481.19
2022-12-23T10:33:20.065Z,96466.38
2022-12-23T10:36:14.048Z,96465.00
2022-12-23T10:39:08.669Z,96467.81
2022-12-23T10:41:57.976Z,96466.22
2022-12-23T10:44:48.781Z,96460.25
2022-12-23T10:47:31.108Z,96458.16
2022-12-23T10:50:34.754Z,96457.31
2022-12-23T10:53:08.052Z,96457.84
2022-12-23T10:55:38.705Z,96447.78
2022-12-23T10:58:18.435Z,96448.88
2022-12-23T11:00:54.148Z,96451.72
2022-12-23T11:03:44.639Z,96455.34
2022-12-23T11:06:12.795Z,96456.41
2022-12-23T11:08:40.924Z,96456.66
2022-12-23T11:11:09.658Z,96455.94
2022-12-23T11:13:44.662Z,96459.41
2022-12-23T11:16:23.932Z,96456.78
2022-12-23T11:19:13.896Z,96455.59
2022-12-23T11:21:55.873Z,96461.38
2022-12-23T11:24:25.543Z,96452.47
2022-12-23T11:27:16.077Z,96445.97
2022-12-23T11:29:54.606Z,96452.00
2022-12-23T11:32:27.711Z,96445.06
2022-12-23T11:34:56.214Z,96446.88
2022-12-23T11:37:40.577Z,96447.31
2022-12-23T11:40:35.533Z,96443.03
2022-12-23T11:43:16.368Z,96442.78
2022-12-23T11:45:43.722Z,96442.50
2022-12-23T11:48:30.249Z,96447.97
2022-12-23T11:51:03.745Z,96450.88
2022-12-23T11:53:32.403Z,96450.25
2022-12-23T11:56:11.483Z,96452.97
2022-12-23T11:59:01.422Z,96438.19
2022-12-23T12:01:28.911Z,96436.00
2022-12-23T12:04:10.310Z,96433.84
2022-12-23T12:06:49.580Z,96436.72
2022-12-23T12:09:21.635Z,96445.22
2022-12-23T12:12:11.915Z,96447.97
2022-12-23T12:14:54.487Z,96448.09
2022-12-23T12:17:48.624Z,96449.00
2022-12-23T12:20:56.651Z,96449.75
2022-12-23T12:23:43.795Z,96436.91
2022-12-23T12:26:32.711Z,96455.22
2022-12-23T12:29:37.742Z,96453.91
2022-12-23T12:32:23.223Z,96459.47
2022-12-23T12:34:59.035Z,96457.06
2022-12-23T12:37:49.547Z,96466.56
2022-12-23T12:40:43.549Z,96473.44
2022-12-23T12:43:29.788Z,96458.75
2022-12-23T12:46:06.971Z,96474.81
2022-12-23T12:49:05.779Z,96482.34
2022-12-23T12:51:53.221Z,96476.19
2022-12-23T12:54:38.189Z,96475.41
2022-12-23T12:57:05.664Z,96476.69
2022-12-23T12:59:36.711Z,96468.03
2022-12-23T13:02:34.190Z,96479.66
2022-12-23T13:05:25.490Z,96464.69
2022-12-23T13:08:12.048Z,96476.50
2022-12-23T13:11:10.230Z,96479.88
2022-12-23T13:14:05.342Z,96481.69
2022-12-23T13:17:22.701Z,96483.56
2022-12-23T13:20:18.435Z,96491.66
2022-12-23T13:22:48.767Z,96485.00
2022-12-23T13:25:26.020Z,96481.88
2022-12-23T13:28:09.602Z,96486.16
2022-12-23T13:30:47.480Z,96483.22
2022-12-23T13:34:00.521Z,96494.03
2022-12-23T13:36:52.405Z,96496.19
2022-12-23T13:39:55.416Z,96492.28
2022-12-23T13:42:43.019Z,96506.72
2022-12-23T13:45:17.368Z,96506.22
2022-12-23T13:48:16.621Z,96506.22
2022-12-23T13:51:21.674Z,96509.97
2022-12-23T13:54:34.689Z,96510.50
2022-12-23T13:57:44.717Z,96508.94
2022-12-23T14:00:17.989Z,96509.72
2022-12-23T14:03:00.926Z,96507.91
2022-12-23T14:05:39.057Z,96506.88
2022-12-23T14:08:20.470Z,96506.88
2022-12-23T14:11:24.208Z,96503.22
2022-12-23T14:13:51.585Z,96505.03
2022-12-23T14:16:41.369Z,96512.38
2022-12-23T14:19:29.653Z,96512.13
2022-12-23T14:22:21.272Z,96520.03
2022-12-23T14:25:16.668Z,96518.16
2022-12-23T14:28:11.063Z,96515.78
2022-12-23T14:30:42.922Z,96519.75
2022-12-23T14:33:38.229Z,96514.75
2022-12-23T14:36:27.089Z,96525.56
2022-12-23T14:39:12.710Z,96526.88
2022-12-23T14:41:50.130Z,96527.41
2022-12-23T14:44:35.847Z,96532.41
2022-12-23T14:47:25.762Z,96526.59
2022-12-23T14:49:53.107Z,96534.22
2022-12-23T14:52:40.812Z,96525.28
2022-12-23T14:55:32.450Z,96524.75
2022-12-23T14:58:07.793Z,96521.09
2022-12-23T15:00:52.492Z,96518.72
2022-12-23T15:03:20.626Z,96518.72
2022-12-23T15:05:48.855Z,96518.22
2022-12-23T15:08:33.715Z,96517.94
2022-12-23T15:11:01.200Z,96522.38
2022-12-23T15:13:31.294Z,96533.44
2022-12-23T15:16:01.610Z,96542.63
2022-12-23T15:18:29.831Z,96538.41
2022-12-23T15:21:13.120Z,96526.88
2022-12-23T15:23:50.412Z,96527.41
2022-12-23T15:26:18.555Z,96535.78
2022-12-23T15:28:46.044Z,96533.69
2022-12-23T15:31:39.669Z,96530.03
2022-12-23T15:34:19.023Z,96533.44
2022-12-23T15:36:47.334Z,96531.09
2022-12-23T15:39:41.637Z,96533.16
2022-12-23T15:42:28.072Z,96541.84
2022-12-23T15:44:55.333Z,96545.78
2022-12-23T15:47:24.720Z,96544.19
2022-12-23T15:49:52.276Z,96546.81
2022-12-23T15:52:20.693Z,96536.56
2022-12-23T15:55:11.331Z,96528.44
2022-12-23T15:57:50.117Z,96509.81
2022-12-23T16:00:29.181Z,96523.19
2022-12-23T16:03:00.920Z,96517.69
2022-12-23T16:05:38.631Z,96516.88
2022-12-23T16:08:30.054Z,96522.38
2022-12-23T16:11:21.044Z,96529.97
2022-12-23T16:14:32.983Z,96526.19
2022-12-23T16:17:23.841Z,96517.22
2022-12-23T16:19:56.185Z,96516.03
2022-12-23T16:22:34.502Z,96521.28
2022-12-23T16:25:15.487Z,96526.41
2022-12-23T16:28:12.897Z,96526.19
2022-12-23T16:30:42.486Z,96519.28
2022-12-23T16:33:51.002Z,96517.75
2022-12-23T16:36:27.235Z,96518.22
2022-12-23T16:39:11.185Z,96516.06
2022-12-23T16:41:38.627Z,96509.16
2022-12-23T16:44:05.950Z,96504.44
2022-12-23T16:46:42.375Z,96505.50
2022-12-23T16:49:17.778Z,96506.78
2022-12-23T16:51:45.614Z,96512.56
2022-12-23T16:54:17.761Z,96512.94
2022-12-23T16:56:50.066Z,96511.78
2022-12-23T16:59:17.493Z,96519.41
2022-12-23T17:01:49.237Z,96517.06
2022-12-23T17:04:16.803Z,96510.06
2022-12-23T17:06:46.702Z,96514.25
2022-12-23T17:09:14.273Z,96515.78
2022-12-23T17:11:50.779Z,96518.66
2022-12-23T17:14:22.505Z,96521.03
2022-12-23T17:16:51.124Z,96522.09
2022-12-23T17:19:25.604Z,96526.03
2022-12-23T17:22:03.175Z,96528.16
2022-12-23T17:24:31.372Z,96527.44
2022-12-23T17:26:59.011Z,96525.09
2022-12-23T17:29:26.468Z,96530.94
2022-12-23T17:31:54.310Z,96530.88
2022-12-23T17:34:24.563Z,96541.59
2022-12-23T17:36:52.796Z,96535.50
2022-12-23T17:39:21.917Z,96532.94
2022-12-23T17:41:49.794Z,96528.38
2022-12-23T17:44:18.821Z,96528.34
2022-12-23T17:46:47.064Z,96537.88
2022-12-23T17:49:14.725Z,96537.19
2022-12-23T17:51:42.956Z,96534.81
2022-12-23T17:54:24.728Z,96534.53
2022-12-23T17:56:53.044Z,96540.88
2022-12-23T17:59:21.111Z,96547.69
2022-12-23T18:01:48.877Z,96534.03
2022-12-23T18:04:16.335Z,96534.25
2022-12-23T18:06:43.812Z,96535.72
2022-12-23T18:09:11.190Z,96542.63
2022-12-23T18:11:45.967Z,96547.16
2022-12-23T18:14:27.741Z,96549.28
2022-12-23T18:16:55.365Z,96556.59
2022-12-23T18:19:22.686Z,96558.47
2022-12-23T18:21:51.548Z,96553.22
2022-12-23T18:24:19.418Z,96558.69
2022-12-23T18:26:47.624Z,96559.69
2022-12-23T18:29:15.148Z,96551.28
2022-12-23T18:31:51.604Z,96539.97
2022-12-23T18:34:20.806Z,96541.56
2022-12-23T18:36:48.470Z,96537.88
2022-12-23T18:39:15.951Z,96546.81
2022-12-23T18:41:43.227Z,96546.31
2022-12-23T18:44:20.484Z,96545.78
2022-12-23T18:46:49.100Z,96536.38
2022-12-23T18:49:16.537Z,96538.25
2022-12-23T18:51:43.994Z,96542.38
2022-12-23T18:54:20.514Z,96538.94
2022-12-23T18:56:49.330Z,96530.25
2022-12-23T18:59:27.477Z,96525.56
2022-12-23T19:01:57.915Z,96522.63
2022-12-23T19:04:27.198Z,96521.84
2022-12-23T19:06:56.686Z,96519.94
2022-12-23T19:09:25.136Z,96520.22
2022-12-23T19:11:54.193Z,96515.28
2022-12-23T19:14:22.172Z,96513.41
2022-12-23T19:16:52.237Z,96498.22
2022-12-23T19:19:21.738Z,96504.09
2022-12-23T19:21:49.315Z,96508.78
2022-12-23T19:24:16.893Z,96513.81
2022-12-23T19:26:44.306Z,96520.00
2022-12-23T19:29:11.709Z,96509.91
2022-12-23T19:31:39.585Z,96515.38
2022-12-23T19:34:11.190Z,96519.94
2022-12-23T19:36:42.230Z,96511.00
2022-12-23T19:39:17.254Z,96521.47
2022-12-23T19:41:45.617Z,96510.47
2022-12-23T19:44:13.449Z,96512.88
2022-12-23T19:46:41.264Z,96514.50
2022-12-23T19:49:10.700Z,96515.25
2022-12-23T19:51:41.790Z,96519.75
2022-12-23T19:54:09.126Z,96514.81
2022-12-23T19:56:36.648Z,96516.47
2022-12-23T19:59:04.006Z,96519.06
2022-12-23T20:01:31.363Z,96515.72
2022-12-23T20:03:58.826Z,96525.13
2022-12-23T20:06:33.712Z,96515.72
2022-12-23T20:09:04.441Z,96497.94
2022-12-23T20:11:37.381Z,96486.97
2022-12-23T20:14:05.655Z,96487.84
2022-12-23T20:16:34.356Z,96503.03
2022-12-23T20:19:02.132Z,96511.38
2022-12-23T20:21:29.438Z,96503.97
2022-12-23T20:23:57.184Z,96505.81
2022-12-23T20:26:24.607Z,96500.28
2022-12-23T20:28:51.992Z,96491.34
2022-12-23T20:31:26.901Z,96484.06
2022-12-23T20:33:55.577Z,96475.13
2022-12-23T20:36:30.629Z,96470.16
2022-12-23T20:38:58.446Z,96469.09
2022-12-23T20:41:28.765Z,96454.47
2022-12-23T20:44:32.339Z,96446.31
2022-12-23T20:46:44.534Z,96448.38
2022-12-23T20:49:12.069Z,96448.91
2022-12-23T20:51:39.324Z,96443.38
2022-12-23T20:54:06.753Z,96446.75
2022-12-23T20:56:34.452Z,96435.25
2022-12-23T20:59:02.791Z,96434.50
2022-12-23T21:01:35.463Z,96422.22
2022-12-23T21:04:07.459Z,96420.16
2022-12-23T21:06:35.982Z,96412.81
2022-12-23T21:09:06.867Z,96403.94
2022-12-23T21:11:37.802Z,96405.28
2022-12-23T21:14:07.193Z,96405.53
2022-12-23T21:16:36.675Z,96411.59
2022-12-23T21:19:06.679Z,96406.84
2022-12-23T21:21:35.106Z,96409.47
2022-12-23T21:24:05.065Z,96407.16
2022-12-23T21:26:34.722Z,96414.78
2022-12-23T21:29:05.767Z,96414.47
2022-12-23T21:31:36.672Z,96412.91
2022-12-23T21:34:07.692Z,96410.31
2022-12-23T21:36:38.895Z,96405.34
2022-12-23T21:39:07.883Z,96394.59
2022-12-23T21:41:39.196Z,96400.31
2022-12-23T21:44:07.355Z,96395.56
2022-12-23T21:46:35.716Z,96391.84
2022-12-23T21:49:03.643Z,96394.75
2022-12-23T21:51:40.225Z,96396.34
2022-12-23T21:54:11.783Z,96393.69
2022-12-23T21:56:41.635Z,96386.63
2022-12-23T21:59:13.222Z,96380.63
2022-12-23T22:01:42.164Z,96386.63
2022-12-23T22:04:09.557Z,96382.47
2022-12-23T22:06:43.764Z,96386.34
2022-12-23T22:09:15.912Z,96383.75
2022-12-23T22:11:43.478Z,96381.72
2022-12-23T22:14:14.899Z,96380.41
2022-12-23T22:16:42.473Z,96384.09
2022-12-23T22:19:11.667Z,96378.56
2022-12-23T22:21:39.896Z,96373.63
2022-12-23T22:24:08.361Z,96370.22
2022-12-23T22:26:36.400Z,96366.53
2022-12-23T22:29:06.818Z,96372.88
2022-12-23T22:31:48.722Z,96368.09
2022-12-23T22:34:22.504Z,96355.00
2022-12-23T22:36:50.114Z,96354.72
2022-12-23T22:39:21.851Z,96342.94
2022-12-23T22:41:52.880Z,96332.44
2022-12-23T22:44:20.620Z,96342.91
2022-12-23T22:46:48.192Z,96343.16
2022-12-23T22:49:16.307Z,96334.78
2022-12-23T22:51:45.041Z,96332.69
2022-12-23T22:54:12.447Z,96334.78
2022-12-23T22:56:39.908Z,96324.78
2022-12-23T22:59:07.306Z,96326.34
2022-12-23T23:01:36.411Z,96323.44
2022-12-23T23:04:04.616Z,96328.16
2022-12-23T23:06:38.136Z,96320.06
2022-12-23T23:09:14.179Z,96329.25
2022-12-23T23:11:41.765Z,96317.69
2022-12-23T23:14:09.085Z,96314.31
2022-12-23T23:16:36.969Z,96321.63
2022-12-23T23:19:05.219Z,96316.94
2022-12-23T23:21:32.540Z,96327.47
2022-12-23T23:23:59.850Z,96313.03
2022-12-23T23:26:27.546Z,96297.56
2022-12-23T23:28:56.274Z,96286.03
2022-12-23T23:34:12.770Z,96288.13
2022-12-23T23:36:40.744Z,96275.28
2022-12-23T23:39:08.685Z,96278.94
2022-12-23T23:41:36.083Z,96280.53
2022-12-23T23:44:03.568Z,96269.00
2022-12-23T23:46:31.880Z,96265.91
2022-12-23T23:48:59.462Z,96249.47
2022-12-23T23:51:26.763Z,96249.16
2022-12-23T23:53:54.024Z,96243.16
2022-12-23T23:56:25.679Z,96244.44
2022-12-23T23:58:54.395Z,96241.28
